createdAt,value
2022-10-08T00:01:29.570Z,10.30
2022-10-08T00:03:38.601Z,10.40
2022-10-08T00:05:43.764Z,10.30
2022-10-08T00:07:51.895Z,10.40
2022-10-08T00:09:57.226Z,10.30
2022-10-08T00:12:03.019Z,10.40
2022-10-08T00:14:09.254Z,10.40
2022-10-08T00:16:18.089Z,10.40
2022-10-08T00:18:24.008Z,10.40
2022-10-08T00:20:29.792Z,10.40
2022-10-08T00:22:35.224Z,10.40
2022-10-08T00:24:42.867Z,10.30
2022-10-08T00:26:48.665Z,10.40
2022-10-08T00:28:55.917Z,9.90
2022-10-08T00:31:01.104Z,9.70
2022-10-08T00:33:06.471Z,9.80
2022-10-08T00:35:12.703Z,9.80
2022-10-08T00:37:18.107Z,9.80
2022-10-08T00:39:25.176Z,10.00
2022-10-08T00:41:36.160Z,10.10
2022-10-08T00:43:46.880Z,10.00
2022-10-08T00:45:52.835Z,9.80
2022-10-08T00:47:58.594Z,9.50
2022-10-08T00:50:09.418Z,9.70
2022-10-08T00:52:14.640Z,9.70
2022-10-08T00:54:22.787Z,9.70
2022-10-08T00:56:27.790Z,9.60
2022-10-08T00:58:37.580Z,9.80
2022-10-08T01:00:44.769Z,9.90
2022-10-08T01:02:50.568Z,9.80
2022-10-08T01:04:56.368Z,9.80
2022-10-08T01:07:10.163Z,9.80
2022-10-08T01:09:21.209Z,9.50
2022-10-08T01:11:42.092Z,9.70
2022-10-08T01:13:59.740Z,9.80
2022-10-08T01:16:14.433Z,9.60
2022-10-08T01:18:30.594Z,9.80
2022-10-08T01:20:47.267Z,9.60
2022-10-08T01:23:32.234Z,9.60
2022-10-08T01:25:47.253Z,9.80
2022-10-08T01:28:03.515Z,9.80
2022-10-08T01:30:14.587Z,9.80
2022-10-08T01:32:24.788Z,9.70
2022-10-08T01:34:37.806Z,9.40
2022-10-08T01:36:49.787Z,9.50
2022-10-08T01:39:01.812Z,9.60
2022-10-08T01:41:12.464Z,9.70
2022-10-08T01:43:24.637Z,9.60
2022-10-08T01:45:35.378Z,9.40
2022-10-08T01:47:42.546Z,9.50
2022-10-08T01:49:53.160Z,9.60
2022-10-08T01:52:04.267Z,9.50
2022-10-08T01:54:15.750Z,9.40
2022-10-08T01:56:26.247Z,9.40
2022-10-08T01:58:41.417Z,9.60
2022-10-08T02:00:47.983Z,9.60
2022-10-08T02:02:53.409Z,9.60
2022-10-08T02:04:57.006Z,9.50
2022-10-08T02:07:05.801Z,9.40
2022-10-08T02:09:13.072Z,9.40
2022-10-08T02:11:18.119Z,9.60
2022-10-08T02:13:24.595Z,9.60
2022-10-08T02:15:44.433Z,9.70
2022-10-08T02:18:06.243Z,9.70
2022-10-08T02:20:22.486Z,9.70
2022-10-08T02:22:36.077Z,9.60
2022-10-08T02:24:48.112Z,9.50
2022-10-08T02:26:59.695Z,9.70
2022-10-08T02:29:10.655Z,9.60
2022-10-08T02:31:26.486Z,9.80
2022-10-08T02:33:39.193Z,9.70
2022-10-08T02:35:52.732Z,9.70
2022-10-08T02:38:03.503Z,9.70
2022-10-08T02:40:13.834Z,9.70
2022-10-08T02:42:26.045Z,9.80
2022-10-08T02:44:37.915Z,9.80
2022-10-08T02:46:51.032Z,9.90
2022-10-08T02:49:02.446Z,9.90
2022-10-08T02:51:13.085Z,9.90
2022-10-08T02:53:21.210Z,9.90
2022-10-08T02:55:38.442Z,9.90
2022-10-08T02:57:49.011Z,9.80
2022-10-08T02:59:54.931Z,9.70
2022-10-08T03:02:05.717Z,9.80
2022-10-08T03:04:17.596Z,9.90
2022-10-08T03:06:24.229Z,9.90
2022-10-08T03:08:29.870Z,10.00
2022-10-08T03:10:38.739Z,10.00
2022-10-08T03:12:43.931Z,9.80
2022-10-08T03:14:52.411Z,9.70
2022-10-08T03:16:57.930Z,9.70
2022-10-08T03:19:07.037Z,9.70
2022-10-08T03:21:16.109Z,9.80
2022-10-08T03:23:22.202Z,9.70
2022-10-08T03:25:27.662Z,9.80
2022-10-08T03:27:35.949Z,9.90
2022-10-08T03:29:41.803Z,9.90
2022-10-08T03:31:46.818Z,9.80
2022-10-08T03:33:53.650Z,9.80
2022-10-08T03:36:02.441Z,9.70
2022-10-08T03:38:08.086Z,9.70
2022-10-08T03:40:14.126Z,9.70
2022-10-08T03:42:19.217Z,9.80
2022-10-08T03:44:24.883Z,9.80
2022-10-08T03:46:30.135Z,9.90
2022-10-08T03:48:35.234Z,9.90
2022-10-08T03:50:40.556Z,9.90
2022-10-08T03:52:48.634Z,9.90
2022-10-08T03:54:54.216Z,9.90
2022-10-08T03:56:59.715Z,9.90
2022-10-08T03:59:05.032Z,9.90
2022-10-08T04:01:14.805Z,9.90
2022-10-08T04:03:20.529Z,9.60
2022-10-08T04:05:25.519Z,9.60
2022-10-08T04:07:31.749Z,9.60
2022-10-08T04:09:40.161Z,9.50
2022-10-08T04:11:45.159Z,9.30
2022-10-08T04:13:51.065Z,9.30
2022-10-08T04:15:56.144Z,9.30
2022-10-08T04:18:01.187Z,9.50
2022-10-08T04:20:06.946Z,9.60
2022-10-08T04:22:11.966Z,9.50
2022-10-08T04:24:17.863Z,9.50
2022-10-08T04:26:25.552Z,9.40
2022-10-08T04:28:36.277Z,9.40
2022-10-08T04:30:43.752Z,9.30
2022-10-08T04:32:49.365Z,9.20
2022-10-08T04:37:06.067Z,9.20
2022-10-08T04:39:11.278Z,9.40
2022-10-08T04:41:18.566Z,9.40
2022-10-08T04:43:26.166Z,9.50
2022-10-08T04:45:31.160Z,9.50
2022-10-08T04:47:36.202Z,9.60
2022-10-08T04:49:41.232Z,9.60
2022-10-08T04:51:46.240Z,9.50
2022-10-08T04:53:51.473Z,9.30
2022-10-08T04:55:57.380Z,9.40
2022-10-08T04:58:03.066Z,9.40
2022-10-08T05:00:18.313Z,9.40
2022-10-08T05:02:26.071Z,9.40
2022-10-08T05:04:31.152Z,9.40
2022-10-08T05:06:36.415Z,9.40
2022-10-08T05:08:41.747Z,9.40
2022-10-08T05:10:51.928Z,9.40
2022-10-08T05:12:58.237Z,9.40
2022-10-08T05:15:03.353Z,9.30
2022-10-08T05:17:10.998Z,9.30
2022-10-08T05:19:16.009Z,9.30
2022-10-08T05:21:24.059Z,9.30
2022-10-08T05:23:29.063Z,9.40
2022-10-08T05:25:34.724Z,9.40
2022-10-08T05:27:39.874Z,9.30
2022-10-08T05:29:45.330Z,9.30
2022-10-08T05:31:50.397Z,9.30
2022-10-08T05:33:58.499Z,9.30
2022-10-08T05:36:06.874Z,9.30
2022-10-08T05:38:12.629Z,9.20
2022-10-08T05:40:18.176Z,9.30
2022-10-08T05:42:23.229Z,9.20
2022-10-08T05:44:28.626Z,9.30
2022-10-08T05:46:37.012Z,9.30
2022-10-08T05:48:42.601Z,9.30
2022-10-08T05:50:50.576Z,9.30
2022-10-08T05:52:55.715Z,9.30
2022-10-08T05:55:01.075Z,9.40
2022-10-08T05:57:06.385Z,9.30
2022-10-08T05:59:19.138Z,9.40
2022-10-08T06:01:28.341Z,9.40
2022-10-08T06:03:34.267Z,9.40
2022-10-08T06:05:40.088Z,9.30
2022-10-08T06:07:47.754Z,9.30
2022-10-08T06:09:52.977Z,9.20
2022-10-08T06:12:00.595Z,9.30
2022-10-08T06:14:07.531Z,9.40
2022-10-08T06:16:14.348Z,9.40
2022-10-08T06:18:19.715Z,9.50
2022-10-08T06:20:28.497Z,9.50
2022-10-08T06:22:36.837Z,9.40
2022-10-08T06:24:44.571Z,9.40
2022-10-08T06:26:49.615Z,9.40
2022-10-08T06:28:55.785Z,9.50
2022-10-08T06:31:02.633Z,9.50
2022-10-08T06:33:10.350Z,9.40
2022-10-08T06:35:15.614Z,9.40
2022-10-08T06:37:21.012Z,9.40
2022-10-08T06:39:26.370Z,9.50
2022-10-08T06:41:35.012Z,9.40
2022-10-08T06:43:40.355Z,9.40
2022-10-08T06:45:47.133Z,9.40
2022-10-08T06:47:52.151Z,9.40
2022-10-08T06:49:57.451Z,9.40
2022-10-08T06:52:02.614Z,9.50
2022-10-08T06:54:08.723Z,9.50
2022-10-08T06:56:18.480Z,9.50
2022-10-08T06:58:26.174Z,9.50
2022-10-08T07:00:32.027Z,9.50
2022-10-08T07:02:37.777Z,9.60
2022-10-08T07:04:42.982Z,9.60
2022-10-08T07:06:48.604Z,9.60
2022-10-08T07:08:56.366Z,9.60
2022-10-08T07:11:07.705Z,9.60
2022-10-08T07:13:12.768Z,9.60
2022-10-08T07:15:20.490Z,9.60
2022-10-08T07:17:28.800Z,9.70
2022-10-08T07:19:34.081Z,9.70
2022-10-08T07:21:40.565Z,9.70
2022-10-08T07:23:46.436Z,9.80
2022-10-08T07:25:59.705Z,9.90
2022-10-08T07:28:05.065Z,10.00
2022-10-08T07:30:11.706Z,10.10
2022-10-08T07:32:19.315Z,10.20
2022-10-08T07:34:24.599Z,10.30
2022-10-08T07:36:31.340Z,10.30
2022-10-08T07:38:36.367Z,10.30
2022-10-08T07:40:42.198Z,10.40
2022-10-08T07:42:47.464Z,10.40
2022-10-08T07:44:53.237Z,10.40
2022-10-08T07:46:58.450Z,10.40
2022-10-08T07:49:07.042Z,10.50
2022-10-08T07:51:13.723Z,10.50
2022-10-08T07:53:19.467Z,10.50
2022-10-08T07:55:24.890Z,10.60
2022-10-08T07:57:30.957Z,10.60
2022-10-08T07:59:36.320Z,10.70
2022-10-08T08:01:41.865Z,10.70
2022-10-08T08:03:47.292Z,10.70
2022-10-08T08:05:56.198Z,10.70
2022-10-08T08:08:02.020Z,10.70
2022-10-08T08:10:08.521Z,10.80
2022-10-08T08:12:13.993Z,10.90
2022-10-08T08:14:20.599Z,10.90
2022-10-08T08:16:29.325Z,11.00
2022-10-08T08:18:37.544Z,11.10
2022-10-08T08:20:42.996Z,11.20
2022-10-08T08:22:50.925Z,11.30
2022-10-08T08:24:56.571Z,11.40
2022-10-08T08:27:01.664Z,11.50
2022-10-08T08:29:10.749Z,11.70
2022-10-08T08:31:18.808Z,11.80
2022-10-08T08:33:23.895Z,11.90
2022-10-08T08:35:29.400Z,12.00
2022-10-08T08:37:34.426Z,12.00
2022-10-08T08:39:42.042Z,12.10
2022-10-08T08:42:20.907Z,12.10
2022-10-08T08:44:31.826Z,12.20
2022-10-08T08:46:41.022Z,12.20
2022-10-08T08:48:48.819Z,12.40
2022-10-08T08:50:59.505Z,12.40
2022-10-08T08:53:07.336Z,12.50
2022-10-08T08:55:18.188Z,12.50
2022-10-08T08:57:37.071Z,12.50
2022-10-08T08:59:47.395Z,12.50
2022-10-08T09:01:53.970Z,12.50
2022-10-08T09:04:07.633Z,12.70
2022-10-08T09:06:17.251Z,12.80
2022-10-08T09:08:28.779Z,12.90
2022-10-08T09:10:43.634Z,13.00
2022-10-08T09:12:50.310Z,13.10
2022-10-08T09:14:59.887Z,13.30
2022-10-08T09:17:17.362Z,13.40
2022-10-08T09:19:22.798Z,13.60
2022-10-08T09:21:32.063Z,13.50
2022-10-08T09:23:37.175Z,13.60
2022-10-08T09:25:46.693Z,13.60
2022-10-08T09:27:55.385Z,13.60
2022-10-08T09:30:00.765Z,13.70
2022-10-08T09:32:07.430Z,13.60
2022-10-08T09:34:22.476Z,13.50
2022-10-08T09:36:38.775Z,13.50
2022-10-08T09:38:44.507Z,13.50
2022-10-08T09:41:03.878Z,13.50
2022-10-08T09:43:20.428Z,13.40
2022-10-08T09:45:41.693Z,13.40
2022-10-08T09:47:46.721Z,13.30
2022-10-08T09:50:07.221Z,13.40
2022-10-08T09:52:21.802Z,13.30
2022-10-08T09:54:31.167Z,13.40
2022-10-08T09:56:39.990Z,13.50
2022-10-08T09:58:54.740Z,13.60
2022-10-08T10:01:07.608Z,13.70
2022-10-08T10:03:22.266Z,13.70
2022-10-08T10:05:31.783Z,13.70
2022-10-08T10:07:44.072Z,13.70
2022-10-08T10:09:54.249Z,13.70
2022-10-08T10:12:08.862Z,13.70
2022-10-08T10:14:24.697Z,13.70
2022-10-08T10:16:38.047Z,13.70
2022-10-08T10:18:53.736Z,13.70
2022-10-08T10:21:02.801Z,13.70
2022-10-08T10:23:14.976Z,13.70
2022-10-08T10:25:32.296Z,13.80
2022-10-08T10:27:46.773Z,13.90
2022-10-08T10:30:02.135Z,13.90
2022-10-08T10:32:17.729Z,14.00
2022-10-08T10:34:29.256Z,14.10
2022-10-08T10:36:39.979Z,14.10
2022-10-08T10:38:54.989Z,14.10
2022-10-08T10:41:14.542Z,14.20
2022-10-08T10:43:37.315Z,14.00
2022-10-08T10:45:47.546Z,14.20
2022-10-08T10:47:53.761Z,14.10
2022-10-08T10:50:00.059Z,14.00
2022-10-08T10:52:24.728Z,13.90
2022-10-08T10:55:05.380Z,13.80
2022-10-08T10:57:20.870Z,13.80
2022-10-08T10:59:46.501Z,13.90
2022-10-08T11:01:59.169Z,13.80
2022-10-08T11:04:13.156Z,13.70
2022-10-08T11:06:52.728Z,13.70
2022-10-08T11:09:05.178Z,13.60
2022-10-08T11:11:32.889Z,13.70
2022-10-08T11:14:01.221Z,13.70
2022-10-08T11:16:28.231Z,13.60
2022-10-08T11:18:42.122Z,13.50
2022-10-08T11:21:05.903Z,13.50
2022-10-08T11:23:23.770Z,13.40
2022-10-08T11:25:55.989Z,13.40
2022-10-08T11:28:23.295Z,13.40
2022-10-08T11:30:46.253Z,13.40
2022-10-08T11:32:58.867Z,13.40
2022-10-08T11:35:22.864Z,13.30
2022-10-08T11:37:35.421Z,13.30
2022-10-08T11:39:55.620Z,13.30
2022-10-08T11:42:10.666Z,13.40
2022-10-08T11:44:17.319Z,13.30
2022-10-08T11:46:32.883Z,13.30
2022-10-08T11:48:40.617Z,13.50
2022-10-08T11:50:45.712Z,13.50
2022-10-08T11:52:50.864Z,13.60
2022-10-08T11:54:56.192Z,13.60
2022-10-08T11:57:20.563Z,13.80
2022-10-08T11:59:39.863Z,13.70
2022-10-08T12:01:55.949Z,13.60
2022-10-08T12:04:18.940Z,13.60
2022-10-08T12:06:31.622Z,13.50
2022-10-08T12:08:58.101Z,13.50
2022-10-08T12:11:49.610Z,13.60
2022-10-08T12:14:47.740Z,13.70
2022-10-08T12:17:12.252Z,13.80
2022-10-08T12:20:05.217Z,13.80
2022-10-08T12:23:03.567Z,13.60
2022-10-08T12:26:08.996Z,13.70
2022-10-08T12:28:51.508Z,13.80
2022-10-08T12:30:58.949Z,13.80
2022-10-08T12:33:04.136Z,13.90
2022-10-08T12:35:23.746Z,13.90
2022-10-08T12:37:48.996Z,13.90
2022-10-08T12:39:56.273Z,13.90
2022-10-08T12:42:12.324Z,14.00
2022-10-08T12:44:33.543Z,13.90
2022-10-08T12:46:57.652Z,14.10
2022-10-08T12:49:09.266Z,14.50
2022-10-08T12:51:28.973Z,14.60
2022-10-08T12:53:35.067Z,14.90
2022-10-08T12:55:50.098Z,14.90
2022-10-08T12:57:56.009Z,14.90
2022-10-08T13:00:10.255Z,15.10
2022-10-08T13:02:39.400Z,15.10
2022-10-08T13:04:49.900Z,15.30
2022-10-08T13:06:57.383Z,15.50
2022-10-08T13:09:02.489Z,15.90
2022-10-08T13:11:12.648Z,16.10
2022-10-08T13:13:37.821Z,16.40
2022-10-08T13:15:45.898Z,16.20
2022-10-08T13:17:51.720Z,16.10
2022-10-08T13:20:10.554Z,16.40
2022-10-08T13:22:32.797Z,16.70
2022-10-08T13:24:45.906Z,16.60
2022-10-08T13:26:53.742Z,16.50
2022-10-08T13:29:20.636Z,16.50
2022-10-08T13:31:28.758Z,16.60
2022-10-08T13:33:34.186Z,16.50
2022-10-08T13:35:39.588Z,16.80
2022-10-08T13:37:45.671Z,16.90
2022-10-08T13:39:55.658Z,17.00
2022-10-08T13:42:05.622Z,17.10
2022-10-08T13:44:12.521Z,17.20
2022-10-08T13:46:17.670Z,17.20
2022-10-08T13:48:25.678Z,17.40
2022-10-08T13:50:31.493Z,17.50
2022-10-08T13:52:37.965Z,17.30
2022-10-08T13:54:43.087Z,17.30
2022-10-08T13:56:48.483Z,17.20
2022-10-08T13:58:53.927Z,16.60
2022-10-08T14:00:59.475Z,16.70
2022-10-08T14:03:04.812Z,16.30
2022-10-08T14:05:12.847Z,16.50
2022-10-08T14:07:26.616Z,16.20
2022-10-08T14:09:33.059Z,16.10
2022-10-08T14:11:41.263Z,15.70
2022-10-08T14:13:46.719Z,15.70
2022-10-08T14:15:52.743Z,15.60
2022-10-08T14:17:58.319Z,15.70
2022-10-08T14:20:03.761Z,16.20
2022-10-08T14:22:14.370Z,16.20
2022-10-08T14:24:19.467Z,15.60
2022-10-08T14:26:25.363Z,15.40
2022-10-08T14:28:30.436Z,15.60
2022-10-08T14:30:36.201Z,15.60
2022-10-08T14:32:42.362Z,15.60
2022-10-08T14:34:47.429Z,15.50
2022-10-08T14:36:55.997Z,15.50
2022-10-08T14:39:04.608Z,15.60
2022-10-08T14:41:13.279Z,16.00
2022-10-08T14:43:18.489Z,16.30
2022-10-08T14:45:24.012Z,16.40
2022-10-08T14:47:29.580Z,16.70
2022-10-08T14:49:34.696Z,16.50
2022-10-08T14:51:40.491Z,16.50
2022-10-08T14:53:45.959Z,15.70
2022-10-08T14:56:10.934Z,15.50
2022-10-08T14:58:17.651Z,15.60
2022-10-08T15:00:22.853Z,16.00
2022-10-08T15:02:28.200Z,16.10
2022-10-08T15:04:33.273Z,16.10
2022-10-08T15:06:38.740Z,15.80
2022-10-08T15:08:43.920Z,15.80
2022-10-08T15:10:49.727Z,15.90
2022-10-08T15:12:57.361Z,16.10
2022-10-08T15:15:02.556Z,16.20
2022-10-08T15:17:07.645Z,16.20
2022-10-08T15:19:13.334Z,16.20
2022-10-08T15:21:19.192Z,16.00
2022-10-08T15:23:24.452Z,16.20
2022-10-08T15:25:30.434Z,16.00
2022-10-08T15:27:35.465Z,15.90
2022-10-08T15:29:43.469Z,16.10
2022-10-08T15:31:49.012Z,16.00
2022-10-08T15:33:56.498Z,16.10
2022-10-08T15:36:02.249Z,16.00
2022-10-08T15:38:07.358Z,15.70
2022-10-08T15:40:13.251Z,15.80
2022-10-08T15:42:18.662Z,15.80
2022-10-08T15:44:26.332Z,15.80
2022-10-08T15:46:34.237Z,15.90
2022-10-08T15:48:39.413Z,15.70
2022-10-08T15:50:44.821Z,15.80
2022-10-08T15:52:50.430Z,15.60
2022-10-08T15:54:55.758Z,15.40
2022-10-08T15:57:01.791Z,15.30
2022-10-08T15:59:07.051Z,15.40
2022-10-08T16:01:14.684Z,15.40
2022-10-08T16:03:22.595Z,15.20
2022-10-08T16:05:27.704Z,15.20
2022-10-08T16:07:32.793Z,15.20
2022-10-08T16:09:38.588Z,15.20
2022-10-08T16:11:44.346Z,15.20
2022-10-08T16:13:52.224Z,15.20
2022-10-08T16:15:57.730Z,15.00
2022-10-08T16:18:02.762Z,15.10
2022-10-08T16:20:12.744Z,15.10
2022-10-08T16:22:17.893Z,15.00
2022-10-08T16:24:24.123Z,15.00
2022-10-08T16:26:31.832Z,14.50
2022-10-08T16:28:40.584Z,14.30
2022-10-08T16:30:46.013Z,14.20
2022-10-08T16:32:51.309Z,13.80
2022-10-08T16:34:56.805Z,13.80
2022-10-08T16:37:05.043Z,13.50
2022-10-08T16:39:11.057Z,13.60
2022-10-08T16:41:18.792Z,13.50
2022-10-08T16:43:24.497Z,13.30
2022-10-08T16:45:29.906Z,13.30
2022-10-08T16:47:34.976Z,13.30
2022-10-08T16:49:40.422Z,13.20
2022-10-08T16:51:46.600Z,13.20
2022-10-08T16:53:56.715Z,13.20
2022-10-08T16:56:06.002Z,13.10
2022-10-08T16:58:11.115Z,13.00
2022-10-08T17:00:17.437Z,12.90
2022-10-08T17:02:25.973Z,12.90
2022-10-08T17:04:39.372Z,12.70
2022-10-08T17:06:45.515Z,12.60
2022-10-08T17:08:53.956Z,12.20
2022-10-08T17:10:58.990Z,12.10
2022-10-08T17:13:04.482Z,11.80
2022-10-08T17:15:11.401Z,11.40
2022-10-08T17:17:16.807Z,11.40
2022-10-08T17:19:21.994Z,11.50
2022-10-08T17:21:28.532Z,11.60
2022-10-08T17:23:38.638Z,11.80
2022-10-08T17:25:46.341Z,11.90
2022-10-08T17:27:51.255Z,12.00
2022-10-08T17:29:56.435Z,11.40
2022-10-08T17:32:03.102Z,11.00
2022-10-08T17:34:09.711Z,10.90
2022-10-08T17:36:17.300Z,11.20
2022-10-08T17:38:22.312Z,11.50
2022-10-08T17:40:27.607Z,11.50
2022-10-08T17:42:35.213Z,11.50
2022-10-08T17:44:40.525Z,11.50
2022-10-08T17:46:48.239Z,11.50
2022-10-08T17:48:54.021Z,11.50
2022-10-08T17:50:59.207Z,11.50
2022-10-08T17:53:04.278Z,11.50
2022-10-08T17:55:12.743Z,11.30
2022-10-08T17:57:20.382Z,11.40
2022-10-08T17:59:28.132Z,11.20
2022-10-08T18:01:36.303Z,11.20
2022-10-08T18:03:43.461Z,11.20
2022-10-08T18:05:59.070Z,11.00
2022-10-08T18:08:04.120Z,10.90
2022-10-08T18:10:11.719Z,10.80
2022-10-08T18:12:17.124Z,10.50
2022-10-08T18:14:22.829Z,10.50
2022-10-08T18:16:30.413Z,10.40
2022-10-08T18:18:36.070Z,10.30
2022-10-08T18:20:41.153Z,10.40
2022-10-08T18:22:46.990Z,10.40
2022-10-08T18:24:52.858Z,10.50
2022-10-08T18:26:59.398Z,10.40
2022-10-08T18:29:09.461Z,9.90
2022-10-08T18:31:17.255Z,9.80
2022-10-08T18:33:24.933Z,9.90
2022-10-08T18:35:30.088Z,9.10
2022-10-08T18:37:35.116Z,9.00
2022-10-08T18:39:40.221Z,9.10
2022-10-08T18:41:47.580Z,8.90
2022-10-08T18:43:53.024Z,9.30
2022-10-08T18:45:58.061Z,9.10
2022-10-08T18:48:03.142Z,9.50
2022-10-08T18:50:11.771Z,8.90
2022-10-08T18:52:21.352Z,9.20
2022-10-08T18:54:27.792Z,9.50
2022-10-08T18:56:36.006Z,9.30
2022-10-08T18:58:41.062Z,9.40
2022-10-08T19:00:46.483Z,9.00
2022-10-08T19:02:54.345Z,8.40
2022-10-08T19:05:00.960Z,8.80
2022-10-08T19:07:08.546Z,8.90
2022-10-08T19:09:13.836Z,8.40
2022-10-08T19:11:21.776Z,8.90
2022-10-08T19:13:26.575Z,8.90
2022-10-08T19:15:31.700Z,9.00
2022-10-08T19:17:37.241Z,9.10
2022-10-08T19:19:42.261Z,8.90
2022-10-08T19:21:48.313Z,8.80
2022-10-08T19:23:56.508Z,9.00
2022-10-08T19:26:01.539Z,9.20
2022-10-08T19:28:06.677Z,9.20
2022-10-08T19:30:12.431Z,9.30
2022-10-08T19:32:17.517Z,9.30
2022-10-08T19:34:26.887Z,9.20
2022-10-08T19:36:36.243Z,9.20
2022-10-08T19:38:41.297Z,9.20
2022-10-08T19:40:48.936Z,9.20
2022-10-08T19:42:53.926Z,8.00
2022-10-08T19:44:58.988Z,7.80
2022-10-08T19:47:04.210Z,8.30
2022-10-08T19:49:10.848Z,7.90
2022-10-08T19:51:15.955Z,7.90
2022-10-08T19:53:21.889Z,7.90
2022-10-08T19:55:27.035Z,7.80
2022-10-08T19:57:34.734Z,8.10
2022-10-08T19:59:40.013Z,8.40
2022-10-08T20:01:45.602Z,8.50
2022-10-08T20:03:51.213Z,8.10
2022-10-08T20:05:56.466Z,7.70
2022-10-08T20:08:05.176Z,7.80
2022-10-08T20:10:11.731Z,8.20
2022-10-08T20:12:16.763Z,8.20
2022-10-08T20:14:24.421Z,8.10
2022-10-08T20:16:31.437Z,8.20
2022-10-08T20:18:36.673Z,8.20
2022-10-08T20:20:41.713Z,8.30
2022-10-08T20:22:47.032Z,8.30
2022-10-08T20:24:52.352Z,8.20
2022-10-08T20:26:57.457Z,8.10
2022-10-08T20:29:05.638Z,8.20
2022-10-08T20:31:15.737Z,8.20
2022-10-08T20:33:20.839Z,8.20
2022-10-08T20:35:26.941Z,8.20
2022-10-08T20:37:32.041Z,8.10
2022-10-08T20:39:37.373Z,7.90
2022-10-08T20:41:42.473Z,8.00
2022-10-08T20:43:47.559Z,7.90
2022-10-08T20:45:52.561Z,8.00
2022-10-08T20:48:00.123Z,7.50
2022-10-08T20:50:05.173Z,7.50
2022-10-08T20:52:10.376Z,7.80
2022-10-08T20:54:20.549Z,7.80
2022-10-08T20:56:26.906Z,7.90
2022-10-08T20:58:33.537Z,7.90
2022-10-08T21:00:38.677Z,7.80
2022-10-08T21:02:43.714Z,7.90
2022-10-08T21:04:51.365Z,7.70
2022-10-08T21:06:56.442Z,7.80
2022-10-08T21:09:02.407Z,7.90
2022-10-08T21:11:09.488Z,7.90
2022-10-08T21:13:14.554Z,8.00
2022-10-08T21:15:19.807Z,7.90
2022-10-08T21:17:24.823Z,7.60
2022-10-08T21:19:29.917Z,7.20
2022-10-08T21:21:38.960Z,7.30
2022-10-08T21:23:45.944Z,7.40
2022-10-08T21:25:51.254Z,7.20
2022-10-08T21:27:56.467Z,7.00
2022-10-08T21:30:01.472Z,7.20
2022-10-08T21:32:06.661Z,7.10
2022-10-08T21:34:13.594Z,7.10
2022-10-08T21:36:20.984Z,7.10
2022-10-08T21:38:28.622Z,7.30
2022-10-08T21:40:33.629Z,7.20
2022-10-08T21:42:38.664Z,6.90
2022-10-08T21:44:43.688Z,6.80
2022-10-08T21:46:48.717Z,7.00
2022-10-08T21:48:58.325Z,7.00
2022-10-08T21:51:05.910Z,7.00
2022-10-08T21:53:11.349Z,7.10
2022-10-08T21:55:19.103Z,7.00
2022-10-08T21:57:24.590Z,6.90
2022-10-08T21:59:29.898Z,6.90
2022-10-08T22:01:38.198Z,7.00
2022-10-08T22:03:43.298Z,6.80
2022-10-08T22:05:56.763Z,6.40
2022-10-08T22:08:01.800Z,6.40
2022-10-08T22:10:07.651Z,6.70
2022-10-08T22:12:15.253Z,6.80
2022-10-08T22:14:20.782Z,7.00
2022-10-08T22:16:26.766Z,6.90
2022-10-08T22:18:36.025Z,7.00
2022-10-08T22:20:42.020Z,6.90
2022-10-08T22:22:47.415Z,6.90
2022-10-08T22:24:52.873Z,6.90
2022-10-08T22:26:58.510Z,6.80
2022-10-08T22:29:08.029Z,6.50
2022-10-08T22:31:18.428Z,6.30
2022-10-08T22:33:24.256Z,6.50
2022-10-08T22:35:29.961Z,6.70
2022-10-08T22:37:35.003Z,6.80
2022-10-08T22:39:40.347Z,6.80
2022-10-08T22:41:45.528Z,6.90
2022-10-08T22:43:50.648Z,6.90
2022-10-08T22:45:58.689Z,6.90
2022-10-08T22:48:04.389Z,6.90
2022-10-08T22:50:11.416Z,6.90
2022-10-08T22:52:16.443Z,6.90
2022-10-08T22:54:23.007Z,6.90
2022-10-08T22:56:31.004Z,6.80
2022-10-08T22:58:36.216Z,6.70
2022-10-08T23:00:41.381Z,6.70
2022-10-08T23:02:49.883Z,6.70
2022-10-08T23:04:55.126Z,6.70
2022-10-08T23:07:00.708Z,6.70
2022-10-08T23:09:09.279Z,6.80
2022-10-08T23:11:14.796Z,6.70
2022-10-08T23:13:20.825Z,6.70
2022-10-08T23:15:25.847Z,6.70
2022-10-08T23:17:31.291Z,6.60
2022-10-08T23:19:38.908Z,6.70
2022-10-08T23:21:44.515Z,6.50
2022-10-08T23:23:52.474Z,6.50
2022-10-08T23:25:58.361Z,6.40
2022-10-08T23:28:03.807Z,6.10
2022-10-08T23:30:31.393Z,6.20
2022-10-08T23:32:36.521Z,6.00
2022-10-08T23:34:44.598Z,5.40
2022-10-08T23:36:49.972Z,5.60
2022-10-08T23:38:56.514Z,5.90
2022-10-08T23:41:02.933Z,6.10
2022-10-08T23:43:08.061Z,6.20
2022-10-08T23:45:14.183Z,6.20
2022-10-08T23:47:19.298Z,6.20
2022-10-08T23:49:24.387Z,5.60
2022-10-08T23:51:33.050Z,4.90
2022-10-08T23:53:39.469Z,5.20
2022-10-08T23:55:45.248Z,5.50
2022-10-08T23:57:50.952Z,5.70
2022-10-08T23:59:56.075Z,5.50
